Time;durP1;ratioP1;P1;durP2;ratioP2;P2;SDS_P1;SDS_P2;PMS_P1;PMS_P2;Temp;Humidity;BMP_temperature;BMP_pressure;BME280_temperature;BME280_humidity;BME280_pressure;Samples;Min_cycle;Max_cycle;Signal;HPM_P1;HPM_P2
2021/09/12 00:01:58;;;;;;;4.07;3.87;;;;;;;14.25;93.63;95829.88;5045387;28;20578;-70
2021/09/12 00:04:27;;;;;;;4.13;3.93;;;;;;;14.19;93.12;95820.09;5046367;28;20223;-70
2021/09/12 00:06:55;;;;;;;4.40;4.10;;;;;;;14.17;93.30;95816.81;5035455;28;20234;-70
2021/09/12 00:09:23;;;;;;;3.87;3.60;;;;;;;14.17;93.32;95817.66;5030959;28;20214;-70
2021/09/12 00:11:52;;;;;;;5.03;4.73;;;;;;;14.20;93.44;95816.41;5006273;28;20277;-69
2021/09/12 00:14:20;;;;;;;4.93;4.63;;;;;;;14.22;93.72;95819.69;5025579;28;20223;-70
2021/09/12 00:16:49;;;;;;;6.30;5.83;;;;;;;14.23;93.56;95813.34;5044561;28;20319;-70
2021/09/12 00:19:17;;;;;;;4.10;3.90;;;;;;;14.28;93.69;95818.88;5037648;28;20262;-69
2021/09/12 00:21:45;;;;;;;4.20;4.00;;;;;;;14.33;94.00;95811.09;5023091;28;20227;-69
2021/09/12 00:24:14;;;;;;;4.40;4.20;;;;;;;14.36;94.09;95810.72;5038203;28;20723;-69
2021/09/12 00:26:42;;;;;;;4.20;3.90;;;;;;;14.38;94.06;95808.66;5045263;28;20227;-69
2021/09/12 00:29:12;;;;;;;3.53;3.33;;;;;;;14.39;94.17;95806.84;5042329;28;20658;-70
2021/09/12 00:31:40;;;;;;;4.77;4.03;;;;;;;14.40;94.24;95811.13;5039743;28;20307;-69
2021/09/12 00:34:08;;;;;;;3.90;3.60;;;;;;;14.43;94.13;95810.69;5045023;28;20754;-70
2021/09/12 00:36:36;;;;;;;4.23;4.00;;;;;;;14.38;94.29;95811.31;5020087;28;20761;-70
2021/09/12 00:39:05;;;;;;;5.00;4.70;;;;;;;14.32;93.68;95819.28;5036861;28;20311;-70
2021/09/12 00:41:35;;;;;;;4.77;4.37;;;;;;;14.24;91.13;95813.13;5027997;28;20246;-69
2021/09/12 00:44:06;;;;;;;4.80;4.40;;;;;;;14.18;90.64;95813.16;5040807;28;20919;-70
2021/09/12 00:46:37;;;;;;;4.27;3.93;;;;;;;14.11;90.67;95815.78;5017417;28;20276;-69
2021/09/12 00:49:05;;;;;;;3.83;3.63;;;;;;;14.00;91.18;95804.97;5029602;28;20297;-69
2021/09/12 00:51:34;;;;;;;4.57;4.27;;;;;;;13.84;92.03;95804.31;5036635;28;20242;-69
2021/09/12 00:54:04;;;;;;;3.63;3.27;;;;;;;13.83;92.58;95805.31;5044455;28;20249;-69
2021/09/12 00:56:35;;;;;;;3.13;2.93;;;;;;;13.82;92.94;95805.53;5059655;28;20218;-69
2021/09/12 00:59:06;;;;;;;3.37;3.17;;;;;;;13.83;93.33;95805.31;5046099;28;20211;-70
2021/09/12 01:01:36;;;;;;;3.37;3.17;;;;;;;13.86;93.60;95804.91;5045387;28;20451;-69
2021/09/12 01:04:05;;;;;;;4.10;3.60;;;;;;;13.85;94.24;95797.97;5043149;28;20720;-69
2021/09/12 01:06:33;;;;;;;4.67;4.33;;;;;;;13.88;94.32;95802.88;5038038;28;20222;-69
2021/09/12 01:09:01;;;;;;;3.77;3.57;;;;;;;13.92;94.45;95795.34;5041730;28;20227;-70
2021/09/12 01:11:30;;;;;;;3.07;2.83;;;;;;;13.97;94.46;95800.84;5025754;28;20214;-70
2021/09/12 01:13:58;;;;;;;2.80;2.70;;;;;;;14.04;94.59;95793.72;5044643;28;20218;-70
2021/09/12 01:16:26;;;;;;;3.53;3.27;;;;;;;14.11;94.52;95796.41;5042669;28;20762;-70
2021/09/12 01:18:56;;;;;;;4.10;3.73;;;;;;;14.16;94.60;95793.94;5030804;28;20223;-69
2021/09/12 01:21:26;;;;;;;3.37;3.17;;;;;;;14.21;94.86;95796.81;5037273;28;20246;-68
2021/09/12 01:23:54;;;;;;;3.80;3.50;;;;;;;14.23;94.85;95794.75;5040513;28;20297;-70
2021/09/12 01:26:25;;;;;;;4.00;2.77;;;;;;;14.23;94.66;95795.59;5044520;28;20215;-69
2021/09/12 01:28:53;;;;;;;2.60;2.50;;;;;;;14.22;94.27;95798.44;5043528;28;20715;-70
2021/09/12 01:31:22;;;;;;;2.90;2.73;;;;;;;14.19;94.16;95797.03;5036833;28;20649;-69
2021/09/12 01:33:55;;;;;;;3.20;2.97;;;;;;;14.20;94.21;95795.19;5026988;28;20250;-69
2021/09/12 01:36:23;;;;;;;2.83;2.63;;;;;;;14.22;94.10;95788.63;5036495;28;20230;-69
2021/09/12 01:38:51;;;;;;;3.20;3.00;;;;;;;14.24;94.24;95786.59;5022209;28;20227;-69
2021/09/12 01:41:19;;;;;;;2.67;2.57;;;;;;;14.29;94.12;95793.97;5036275;28;20227;-70
2021/09/12 01:43:50;;;;;;;3.27;3.10;;;;;;;14.31;94.06;95785.78;5050267;28;20242;-70
2021/09/12 01:46:18;;;;;;;2.63;2.43;;;;;;;14.31;93.82;95794.56;5044292;28;20781;-69
2021/09/12 01:48:48;;;;;;;2.57;2.47;;;;;;;14.31;93.95;95791.09;5039692;28;20269;-69
2021/09/12 01:51:17;;;;;;;2.37;2.23;;;;;;;14.29;94.08;95783.34;5014129;28;20223;-69
2021/09/12 01:53:45;;;;;;;2.63;2.47;;;;;;;14.29;94.19;95783.34;5023743;28;20222;-70
2021/09/12 01:56:14;;;;;;;1.90;1.80;;;;;;;14.28;94.25;95781.72;5035549;28;20304;-70
2021/09/12 01:58:42;;;;;;;3.03;2.43;;;;;;;14.29;94.38;95778.03;5042964;28;20218;-70
2021/09/12 02:01:12;;;;;;;3.00;2.83;;;;;;;14.28;94.52;95781.72;5043591;28;20227;-69
2021/09/12 02:03:40;;;;;;;5.63;3.00;;;;;;;14.30;94.61;95784.97;5043206;28;20860;-69
2021/09/12 02:06:08;;;;;;;2.53;2.43;;;;;;;14.26;94.56;95778.44;5019277;28;20722;-69
2021/09/12 02:08:36;;;;;;;2.93;2.83;;;;;;;14.24;94.48;95785.78;5043862;28;20219;-69
2021/09/12 02:11:05;;;;;;;3.43;3.23;;;;;;;14.25;94.67;95787.41;5045201;28;20635;-69
2021/09/12 02:13:32;;;;;;;3.17;2.60;;;;;;;14.18;94.82;95781.31;5043384;28;20217;-69
2021/09/12 02:16:00;;;;;;;3.33;3.07;;;;;;;14.21;94.65;95786.19;5031831;28;20314;-69
2021/09/12 02:18:30;;;;;;;3.90;3.70;;;;;;;14.25;94.61;95782.09;5045284;28;20237;-70
2021/09/12 02:20:58;;;;;;;2.40;2.30;;;;;;;14.27;94.66;95780.09;5033481;28;20237;-70
2021/09/12 02:23:26;;;;;;;3.63;3.43;;;;;;;14.33;94.73;95781.91;5042522;28;20726;-70
2021/09/12 02:25:54;;;;;;;2.13;2.03;;;;;;;14.36;94.70;95781.50;5046169;28;20227;-70
2021/09/12 02:28:22;;;;;;;2.57;2.47;;;;;;;14.39;94.71;95780.28;5045318;28;20247;-71
2021/09/12 02:30:50;;;;;;;3.27;3.17;;;;;;;14.43;94.91;95774.34;5036746;28;20218;-69
2021/09/12 02:33:19;;;;;;;2.60;2.50;;;;;;;14.48;95.10;95781.75;5040758;28;20229;-70
2021/09/12 02:35:48;;;;;;;2.67;2.47;;;;;;;14.51;95.02;95776.81;5043410;28;20227;-70
2021/09/12 02:38:17;;;;;;;3.93;3.73;;;;;;;14.56;95.05;95778.06;5024410;28;20227;-69
2021/09/12 02:40:45;;;;;;;2.60;2.40;;;;;;;14.61;95.12;95775.59;5033030;28;20222;-69
2021/09/12 02:43:13;;;;;;;4.00;3.80;;;;;;;14.64;95.23;95781.31;5029755;28;20586;-70
2021/09/12 02:45:41;;;;;;;3.90;3.60;;;;;;;14.66;95.32;95776.63;5028264;28;20296;-69
2021/09/12 02:48:09;;;;;;;4.03;3.73;;;;;;;14.69;95.28;95783.34;5043725;28;20302;-69
2021/09/12 02:50:37;;;;;;;3.47;3.17;;;;;;;14.70;95.33;95779.66;5039590;28;20687;-70
2021/09/12 02:53:07;;;;;;;4.13;3.93;;;;;;;14.69;95.11;95783.34;5030083;28;20215;-69
2021/09/12 02:55:35;;;;;;;3.90;3.70;;;;;;;14.68;95.07;95781.72;5049434;28;20242;-69
2021/09/12 02:58:03;;;;;;;2.97;2.77;;;;;;;14.67;95.10;95788.88;5067293;28;20222;-69
2021/09/12 03:00:31;;;;;;;3.40;3.20;;;;;;;14.66;95.16;95778.47;5043876;28;20871;-69
2021/09/12 03:02:59;;;;;;;3.53;3.33;;;;;;;14.65;95.19;95772.34;5048131;28;20234;-69
2021/09/12 03:05:28;;;;;;;5.03;4.47;;;;;;;14.63;95.42;95774.38;5042691;28;20251;-69
2021/09/12 03:07:57;;;;;;;3.70;3.00;;;;;;;14.66;95.47;95778.47;5045013;28;20864;-69
2021/09/12 03:10:26;;;;;;;6.20;5.60;;;;;;;14.67;95.47;95780.09;5028963;28;20266;-69
2021/09/12 03:12:54;;;;;;;3.97;3.67;;;;;;;14.67;95.43;95780.91;5047060;28;20232;-69
2021/09/12 03:15:22;;;;;;;3.53;3.23;;;;;;;14.69;95.49;95778.84;5046294;28;20313;-70
2021/09/12 03:17:50;;;;;;;3.60;3.40;;;;;;;14.72;95.62;95777.63;5027304;28;20230;-69
2021/09/12 03:20:18;;;;;;;4.03;3.83;;;;;;;14.75;95.54;95771.91;5030790;28;20235;-69
2021/09/12 03:22:47;;;;;;;5.13;4.87;;;;;;;14.79;95.45;95778.44;5043039;28;20277;-69
2021/09/12 03:25:16;;;;;;;4.60;4.40;;;;;;;14.82;95.42;95775.38;5045446;28;20761;-70
2021/09/12 03:27:45;;;;;;;5.00;4.63;;;;;;;14.87;95.54;95774.75;5045288;28;20223;-69
2021/09/12 03:30:14;;;;;;;4.30;4.07;;;;;;;14.89;95.59;95773.50;5039183;28;20313;-70
2021/09/12 03:32:42;;;;;;;4.40;4.20;;;;;;;14.91;95.57;95773.31;5025518;28;20666;-69
2021/09/12 03:35:10;;;;;;;5.47;4.27;;;;;;;14.92;95.28;95770.44;5030583;28;20227;-70
2021/09/12 03:37:39;;;;;;;3.63;3.33;;;;;;;14.92;95.41;95773.09;5033577;28;20215;-69
2021/09/12 03:40:08;;;;;;;3.40;3.07;;;;;;;14.91;95.23;95766.16;5046522;28;20703;-70
2021/09/12 03:42:36;;;;;;;3.30;3.13;;;;;;;14.90;95.28;95759.19;5046032;28;20292;-69
2021/09/12 03:45:06;;;;;;;4.83;4.53;;;;;;;14.88;95.14;95761.25;5040367;28;20234;-70
2021/09/12 03:47:34;;;;;;;5.13;4.70;;;;;;;14.88;95.21;95766.56;5038230;28;20306;-69
2021/09/12 03:50:03;;;;;;;3.97;3.73;;;;;;;14.89;94.97;95768.19;5039683;28;20219;-69
2021/09/12 03:52:31;;;;;;;4.60;4.33;;;;;;;14.85;94.73;95768.81;5042075;28;20249;-69
2021/09/12 03:54:59;;;;;;;4.07;3.77;;;;;;;14.79;93.55;95762.50;5037379;28;20233;-70
2021/09/12 03:57:27;;;;;;;5.37;3.83;;;;;;;14.69;93.10;95767.41;5051886;28;20219;-70
2021/09/12 03:59:55;;;;;;;3.47;3.30;;;;;;;14.60;93.16;95763.34;5040728;28;20298;-69
2021/09/12 04:02:24;;;;;;;3.83;3.63;;;;;;;14.46;93.24;95766.03;5046169;28;20226;-68
2021/09/12 04:04:52;;;;;;;3.13;2.93;;;;;;;14.39;93.03;95759.84;5034870;28;20236;-69
2021/09/12 04:07:20;;;;;;;2.93;2.83;;;;;;;14.34;93.09;95764.94;5050731;28;20318;-70
2021/09/12 04:09:48;;;;;;;3.53;3.27;;;;;;;14.22;93.13;95761.28;5027852;28;20241;-69
2021/09/12 04:12:16;;;;;;;3.53;3.20;;;;;;;14.16;93.40;95768.22;5027553;28;20199;-69
2021/09/12 04:14:44;;;;;;;2.80;2.70;;;;;;;14.11;93.51;95762.72;5034878;28;20258;-69
2021/09/12 04:17:12;;;;;;;3.40;3.20;;;;;;;14.03;93.56;95767.41;5045445;28;20450;-69
2021/09/12 04:19:42;;;;;;;3.90;3.60;;;;;;;14.02;93.18;95760.47;5043411;28;20757;-70
2021/09/12 04:22:10;;;;;;;3.80;3.60;;;;;;;14.02;93.27;95765.78;5024155;28;20219;-69
2021/09/12 04:24:39;;;;;;;4.50;4.10;;;;;;;13.93;93.54;95765.97;5044822;28;20223;-69
2021/09/12 04:27:07;;;;;;;3.20;3.00;;;;;;;13.88;93.60;95776.34;5046128;28;20213;-69
2021/09/12 04:29:35;;;;;;;2.77;2.67;;;;;;;13.85;93.66;95771.44;5041610;28;20249;-70
2021/09/12 04:32:04;;;;;;;4.80;4.40;;;;;;;13.89;93.80;95775.31;5035038;28;20236;-67
2021/09/12 04:34:32;;;;;;;5.43;5.07;;;;;;;13.90;93.79;95774.31;5036409;28;20231;-65
2021/09/12 04:37:01;;;;;;;3.87;3.67;;;;;;;13.88;93.89;95775.53;5038523;28;20250;-67
2021/09/12 04:39:29;;;;;;;4.47;4.07;;;;;;;13.90;94.09;95774.31;5052858;28;20221;-67
2021/09/12 04:41:57;;;;;;;3.67;3.47;;;;;;;13.91;94.40;95770.66;5033775;28;20298;-67
2021/09/12 04:44:26;;;;;;;3.60;3.40;;;;;;;13.92;94.63;95766.97;5037185;28;20640;-67
2021/09/12 04:46:54;;;;;;;3.27;3.07;;;;;;;13.95;94.55;95771.88;5043915;28;20215;-67
2021/09/12 04:49:22;;;;;;;4.03;3.73;;;;;;;13.99;94.62;95774.09;5042516;28;20222;-67
2021/09/12 04:51:50;;;;;;;5.50;5.00;;;;;;;14.00;94.72;95778.44;5032136;28;20310;-67
2021/09/12 04:54:21;;;;;;;4.33;3.97;;;;;;;13.99;94.80;95771.47;5038941;28;20245;-67
2021/09/12 04:56:52;;;;;;;2.47;2.27;;;;;;;14.00;95.05;95767.81;5044581;28;20223;-67
2021/09/12 04:59:20;;;;;;;2.80;2.60;;;;;;;14.04;95.13;95771.69;5043070;28;20235;-67
2021/09/12 05:01:49;;;;;;;3.73;3.53;;;;;;;14.08;95.26;95776.41;5042098;28;20221;-67
2021/09/12 05:04:17;;;;;;;3.23;3.03;;;;;;;14.12;95.10;95782.09;5031560;28;20239;-67
2021/09/12 05:06:45;;;;;;;2.83;2.73;;;;;;;14.16;95.31;95775.34;5037171;28;20337;-67
2021/09/12 05:09:13;;;;;;;5.67;5.17;;;;;;;14.20;95.39;95768.63;5040783;28;20253;-67
2021/09/12 05:11:43;;;;;;;4.40;4.10;;;;;;;14.23;95.61;95770.88;5044044;28;20206;-67
2021/09/12 05:14:11;;;;;;;4.50;4.10;;;;;;;14.24;95.33;95772.50;5033959;28;20223;-67
2021/09/12 05:16:39;;;;;;;4.50;4.23;;;;;;;14.26;95.45;95773.13;5045175;28;20245;-66
2021/09/12 05:19:07;;;;;;;3.53;3.33;;;;;;;14.29;95.41;95780.69;5026549;28;20308;-67
2021/09/12 05:21:35;;;;;;;4.70;4.40;;;;;;;14.31;95.32;95770.69;5035304;28;20305;-67
2021/09/12 05:24:05;;;;;;;4.80;4.50;;;;;;;14.35;95.36;95779.03;5043524;28;20779;-67
2021/09/12 05:26:33;;;;;;;4.17;3.97;;;;;;;14.36;95.26;95781.50;5026481;28;20696;-67
2021/09/12 05:29:02;;;;;;;5.63;5.23;;;;;;;14.34;95.07;95785.38;5040287;28;21454;-67
2021/09/12 05:31:30;;;;;;;5.10;4.80;;;;;;;14.37;94.89;95785.00;5040731;28;20322;-67
2021/09/12 05:33:58;;;;;;;8.13;5.57;;;;;;;14.39;93.71;95783.75;5043389;28;20215;-67
2021/09/12 05:36:26;;;;;;;9.40;4.93;;;;;;;14.44;93.51;95786.59;5041145;28;20226;-67
2021/09/12 05:38:54;;;;;;;5.47;5.07;;;;;;;14.40;93.50;95788.03;5043183;28;20230;-67
2021/09/12 05:41:22;;;;;;;4.67;4.37;;;;;;;14.36;93.42;95793.97;5043057;28;20284;-67
2021/09/12 05:43:50;;;;;;;6.50;4.47;;;;;;;14.33;93.87;95789.88;5040571;28;20305;-67
2021/09/12 05:46:19;;;;;;;3.90;3.70;;;;;;;14.39;94.06;95794.38;5039226;28;20222;-67
2021/09/12 05:48:48;;;;;;;5.40;5.00;;;;;;;14.46;94.01;95800.53;5041616;28;20600;-66
2021/09/12 05:51:16;;;;;;;5.77;5.20;;;;;;;14.58;93.97;95799.91;5036621;28;20270;-66
2021/09/12 05:53:44;;;;;;;5.07;4.77;;;;;;;14.64;94.14;95801.75;5039368;28;20314;-67
2021/09/12 05:56:11;;;;;;;5.50;5.03;;;;;;;14.70;94.28;95800.91;5043355;28;20795;-66
2021/09/12 05:58:40;;;;;;;5.10;4.63;;;;;;;14.82;94.16;95796.63;5039050;28;20301;-67
2021/09/12 06:01:08;;;;;;;4.70;4.40;;;;;;;14.95;94.25;95798.44;5043952;28;20709;-67
2021/09/12 06:03:37;;;;;;;8.17;7.57;;;;;;;15.13;94.14;95789.81;5043282;28;20539;-67
2021/09/12 06:06:06;;;;;;;6.53;6.03;;;;;;;15.29;93.93;95797.34;5039102;28;20474;-67
2021/09/12 06:08:35;;;;;;;7.53;6.93;;;;;;;15.48;93.81;95807.09;5037722;28;20230;-67
2021/09/12 06:11:03;;;;;;;6.87;6.43;;;;;;;15.56;94.12;95806.84;5042444;28;20222;-68
2021/09/12 06:13:31;;;;;;;6.50;6.10;;;;;;;15.73;93.74;95817.03;5039577;28;20358;-66
2021/09/12 06:15:59;;;;;;;6.80;6.30;;;;;;;15.83;93.65;95796.13;5037912;28;20234;-67
2021/09/12 06:18:28;;;;;;;5.77;5.43;;;;;;;15.90;93.59;95802.19;5045925;28;20272;-66
2021/09/12 06:20:57;;;;;;;10.67;8.00;;;;;;;15.97;93.55;95808.31;5036073;28;20235;-66
2021/09/12 06:23:25;;;;;;;6.50;6.10;;;;;;;16.06;93.39;95809.69;5041963;28;20219;-67
2021/09/12 06:25:54;;;;;;;6.97;6.50;;;;;;;16.11;93.58;95803.72;5043631;28;20250;-67
2021/09/12 06:28:22;;;;;;;7.03;6.53;;;;;;;16.16;93.50;95802.03;5043266;28;20223;-66
2021/09/12 06:30:51;;;;;;;8.27;7.67;;;;;;;16.25;93.33;95804.44;5042240;28;20306;-67
2021/09/12 06:33:19;;;;;;;7.87;7.33;;;;;;;16.32;93.31;95805.22;5037008;28;20305;-66
2021/09/12 06:35:47;;;;;;;7.27;6.83;;;;;;;16.40;93.08;95807.63;5039168;28;20226;-67
2021/09/12 06:38:16;;;;;;;6.67;6.27;;;;;;;16.47;92.99;95803.06;5032697;28;20219;-67
2021/09/12 06:40:44;;;;;;;7.57;6.93;;;;;;;16.55;92.81;95800.13;5025785;28;20224;-67
2021/09/12 06:43:13;;;;;;;14.27;8.33;;;;;;;16.63;92.68;95797.16;5029919;28;20667;-66
2021/09/12 06:45:41;;;;;;;7.27;6.80;;;;;;;16.74;92.56;95801.84;5035484;28;20236;-67
2021/09/12 06:48:10;;;;;;;6.37;5.90;;;;;;;16.87;92.16;95802.75;5039294;28;20223;-67
2021/09/12 06:50:37;;;;;;;6.90;6.30;;;;;;;16.96;91.98;95801.44;5037997;28;20550;-67
2021/09/12 06:53:06;;;;;;;5.10;4.70;;;;;;;17.07;91.78;95800.69;5043878;28;20766;-67
2021/09/12 06:55:35;;;;;;;6.60;6.17;;;;;;;17.16;91.47;95804.69;5048476;28;20550;-67
2021/09/12 06:58:04;;;;;;;6.33;5.90;;;;;;;17.25;91.18;95799.91;5041883;28;20231;-67
2021/09/12 07:00:32;;;;;;;7.80;7.23;;;;;;;17.30;90.86;95808.88;5041337;28;20261;-67
2021/09/12 07:03:01;;;;;;;9.27;8.20;;;;;;;17.32;90.59;95800.66;5033733;28;20357;-67
2021/09/12 07:05:30;;;;;;;8.03;7.43;;;;;;;17.37;90.78;95803.44;5034525;28;20234;-66
2021/09/12 07:07:58;;;;;;;8.67;8.07;;;;;;;17.47;90.45;95814.44;5041225;28;20223;-66
2021/09/12 07:10:26;;;;;;;7.43;7.03;;;;;;;17.52;90.52;95811.91;5051286;28;20246;-67
2021/09/12 07:12:55;;;;;;;8.50;8.00;;;;;;;17.59;90.51;95817.16;5045356;28;20329;-66
2021/09/12 07:15:23;;;;;;;7.53;6.93;;;;;;;17.62;90.11;95816.72;5042362;28;20258;-67
2021/09/12 07:17:51;;;;;;;7.67;7.17;;;;;;;17.74;89.60;95806.97;5042466;28;20795;-66
2021/09/12 07:20:19;;;;;;;6.73;6.23;;;;;;;17.84;89.69;95812.56;5036078;28;20261;-67
2021/09/12 07:22:51;;;;;;;7.57;7.07;;;;;;;17.95;89.43;95810.19;5044578;28;20461;-67
2021/09/12 07:25:20;;;;;;;5.97;5.67;;;;;;;18.07;89.63;95811.03;5039143;28;20235;-66
2021/09/12 07:27:48;;;;;;;6.77;6.37;;;;;;;18.22;89.15;95811.44;5035371;28;20323;-67
2021/09/12 07:30:17;;;;;;;6.30;5.90;;;;;;;18.38;89.01;95816.13;5046917;28;20215;-67
2021/09/12 07:32:46;;;;;;;5.07;4.83;;;;;;;18.53;88.53;95817.53;5045239;28;20257;-67
2021/09/12 07:35:14;;;;;;;6.83;6.33;;;;;;;18.68;88.07;95813.41;5042998;28;20223;-68
2021/09/12 07:37:43;;;;;;;5.77;5.40;;;;;;;18.85;87.21;95813.56;5042239;28;20261;-66
2021/09/12 07:40:12;;;;;;;5.07;4.77;;;;;;;18.98;86.42;95816.00;5055530;28;20281;-68
2021/09/12 07:42:42;;;;;;;6.57;6.17;;;;;;;19.12;86.48;95815.78;5045274;28;20645;-67
2021/09/12 07:45:10;;;;;;;5.40;5.00;;;;;;;19.29;86.16;95822.00;5041788;28;20314;-67
2021/09/12 07:47:40;;;;;;;6.37;6.07;;;;;;;19.46;85.95;95822.94;5045942;28;20673;-68
2021/09/12 07:50:09;;;;;;;6.20;5.70;;;;;;;19.57;84.81;95824.81;5037339;28;20302;-67
2021/09/12 07:52:41;;;;;;;8.07;7.37;;;;;;;19.64;83.30;95831.88;5050012;28;20242;-68
2021/09/12 07:55:11;;;;;;;5.93;5.50;;;;;;;19.67;83.02;95828.75;5045111;28;20238;-67
2021/09/12 07:57:39;;;;;;;6.07;5.67;;;;;;;19.79;83.63;95822.31;5044883;28;20225;-67
2021/09/12 08:00:09;;;;;;;6.47;6.03;;;;;;;19.87;82.25;95829.16;5041987;28;20306;-67
2021/09/12 08:02:42;;;;;;;9.00;8.30;;;;;;;19.93;81.92;95825.50;5043425;28;20473;-68
2021/09/12 08:05:12;;;;;;;7.73;7.13;;;;;;;20.04;81.58;95824.69;5043401;28;20327;-67
2021/09/12 08:07:40;;;;;;;6.10;5.80;;;;;;;20.16;80.97;95817.41;5044388;28;20317;-67
2021/09/12 08:10:09;;;;;;;7.33;6.63;;;;;;;20.30;81.04;95817.09;5045616;28;20226;-68
2021/09/12 08:12:37;;;;;;;7.23;6.83;;;;;;;20.52;81.19;95823.44;5040760;28;20672;-67
2021/09/12 08:15:07;;;;;;;5.30;5.00;;;;;;;20.74;79.43;95818.97;5040713;28;20756;-67
2021/09/12 08:17:34;;;;;;;5.87;5.33;;;;;;;20.97;78.98;95814.50;5043260;28;20246;-67
2021/09/12 08:20:04;;;;;;;6.17;5.77;;;;;;;21.10;78.36;95824.88;5034549;28;20747;-67
2021/09/12 08:22:33;;;;;;;6.27;5.93;;;;;;;21.23;77.96;95826.44;5039516;28;20223;-68
2021/09/12 08:25:01;;;;;;;7.10;6.63;;;;;;;21.25;76.22;95822.44;5038420;28;22278;-66
2021/09/12 08:27:29;;;;;;;4.90;4.60;;;;;;;21.29;76.32;95820.91;5040851;28;20298;-66
2021/09/12 08:29:57;;;;;;;6.10;5.80;;;;;;;21.42;75.93;95827.00;5041237;28;20791;-67
2021/09/12 08:32:26;;;;;;;4.73;4.30;;;;;;;21.53;75.70;95820.69;5043681;28;20298;-67
2021/09/12 08:34:53;;;;;;;5.97;5.43;;;;;;;21.64;73.99;95825.13;5042822;28;20580;-66
2021/09/12 08:37:23;;;;;;;5.33;5.03;;;;;;;21.82;74.49;95822.13;5037607;28;20238;-67
2021/09/12 08:39:52;;;;;;;4.30;4.10;;;;;;;21.96;74.66;95825.25;5027305;28;20215;-68
2021/09/12 08:42:22;;;;;;;4.13;3.20;;;;;;;22.10;72.59;95828.38;5041529;28;20800;-68
2021/09/12 08:44:51;;;;;;;3.93;3.63;;;;;;;22.20;73.24;95831.19;5040642;28;20219;-67
2021/09/12 08:47:20;;;;;;;4.23;4.03;;;;;;;22.29;72.22;95829.66;5043907;28;20214;-68
2021/09/12 08:49:52;;;;;;;2.50;2.40;;;;;;;22.38;72.08;95827.34;5038686;28;20521;-67
2021/09/12 08:52:20;;;;;;;2.47;2.37;;;;;;;22.46;71.33;95829.56;5043895;28;20643;-68
2021/09/12 08:54:49;;;;;;;3.20;2.97;;;;;;;22.48;69.93;95826.63;5034126;28;20226;-68
2021/09/12 08:57:17;;;;;;;3.27;2.63;;;;;;;22.43;70.61;95824.72;5044893;28;20207;-67
2021/09/12 08:59:50;;;;;;;3.23;3.03;;;;;;;22.47;71.66;95825.00;5040174;28;20645;-68
2021/09/12 09:02:25;;;;;;;3.57;3.37;;;;;;;22.51;70.42;95823.44;5031071;28;20581;-67
2021/09/12 09:05:01;;;;;;;2.33;2.23;;;;;;;22.59;70.54;95818.41;5043146;28;20245;-67
2021/09/12 09:07:32;;;;;;;2.13;2.03;;;;;;;22.65;70.42;95822.75;5039075;28;20281;-66
2021/09/12 09:10:03;;;;;;;3.10;2.83;;;;;;;22.72;69.12;95817.16;5033900;28;20222;-68
2021/09/12 09:12:34;;;;;;;2.87;2.67;;;;;;;22.79;68.73;95823.16;5044423;28;20761;-67
2021/09/12 09:15:13;;;;;;;2.07;1.97;;;;;;;22.88;68.23;95832.41;5040332;28;20222;-68
2021/09/12 09:17:44;;;;;;;2.03;1.93;;;;;;;22.99;68.37;95831.41;5039746;28;20677;-66
2021/09/12 09:20:17;;;;;;;3.57;2.97;;;;;;;23.12;68.90;95826.66;5036718;28;20246;-67
2021/09/12 09:22:46;;;;;;;3.13;2.93;;;;;;;23.29;69.68;95816.53;5029715;28;20236;-67
2021/09/12 09:25:19;;;;;;;3.10;2.90;;;;;;;23.46;67.95;95817.16;5044457;28;20225;-67
2021/09/12 09:28:03;;;;;;;3.00;2.80;;;;;;;23.73;65.02;95817.06;5043539;28;20889;-67
2021/09/12 09:30:35;;;;;;;3.30;3.10;;;;;;;23.86;65.08;95810.38;5042777;28;20250;-67
2021/09/12 09:33:17;;;;;;;2.17;2.07;;;;;;;24.06;67.00;95798.88;5043782;28;20215;-67
2021/09/12 09:35:55;;;;;;;1.93;1.83;;;;;;;24.19;67.41;95800.25;5042076;28;20525;-67
2021/09/12 09:38:26;;;;;;;2.43;2.33;;;;;;;24.31;67.42;95790.00;5041669;28;20269;-67
2021/09/12 09:41:04;;;;;;;2.92;2.80;;;;;;;24.61;66.32;95794.69;5044111;28;20574;-67
2021/09/12 09:43:41;;;;;;;4.20;3.72;;;;;;;24.99;64.81;95785.22;5045148;28;20218;-67
2021/09/12 09:46:30;;;;;;;3.60;3.17;;;;;;;24.97;64.72;95787.41;5040908;28;20241;-67
2021/09/12 09:48:59;;;;;;;2.50;2.40;;;;;;;24.83;63.97;95786.31;5040370;28;20273;-67
2021/09/12 09:51:28;;;;;;;2.65;2.50;;;;;;;24.65;64.35;95785.75;5024671;28;20300;-68
2021/09/12 09:53:58;;;;;;;2.60;2.50;;;;;;;24.53;65.90;95782.53;5032894;28;20218;-67
2021/09/12 09:56:30;;;;;;;2.85;2.65;;;;;;;24.35;66.40;95777.66;5044515;28;20748;-68
2021/09/12 09:59:00;;;;;;;2.95;2.85;;;;;;;24.40;65.55;95783.03;5040224;28;20234;-66
2021/09/12 10:01:29;;;;;;;2.55;2.35;;;;;;;24.83;65.42;95784.41;5036150;28;20254;-67
2021/09/12 10:03:59;;;;;;;3.55;3.38;;;;;;;24.93;64.37;95775.50;5033837;28;20298;-67
2021/09/12 10:06:28;;;;;;;2.42;2.22;;;;;;;24.95;63.57;95774.13;5035565;28;20254;-68
2021/09/12 10:08:57;;;;;;;3.17;2.92;;;;;;;25.37;63.06;95780.31;5039683;28;20733;-67
2021/09/12 10:11:27;;;;;;;2.60;2.50;;;;;;;25.69;62.44;95778.03;5044775;28;20306;-67
2021/09/12 10:13:56;;;;;;;6.38;2.80;;;;;;;25.88;61.92;95772.03;5039242;28;20716;-67
2021/09/12 10:16:26;;;;;;;3.42;3.13;;;;;;;26.11;62.19;95771.41;5042857;28;20250;-68
2021/09/12 10:18:54;;;;;;;4.05;3.85;;;;;;;26.52;59.42;95772.00;5043325;28;20230;-68
2021/09/12 10:21:24;;;;;;;2.75;2.65;;;;;;;26.86;60.56;95769.25;5039075;28;20242;-68
2021/09/12 10:24:04;;;;;;;3.03;2.80;;;;;;;27.01;57.98;95759.38;5043438;28;20322;-67
2021/09/12 10:26:40;;;;;;;2.90;2.80;;;;;;;27.05;57.93;95761.25;5044202;28;20257;-67
2021/09/12 10:29:42;;;;;;;2.53;2.42;;;;;;;27.45;59.11;95765.47;5037425;28;20229;-68
2021/09/12 10:32:33;;;;;;;3.67;3.47;;;;;;;27.59;55.00;95753.91;5027290;28;20234;-68
2021/09/12 10:35:19;;;;;;;2.25;2.15;;;;;;;27.75;56.61;95761.63;5041976;28;20302;-67
2021/09/12 10:38:01;;;;;;;2.60;2.50;;;;;;;27.63;54.70;95754.97;5043476;28;20254;-68
2021/09/12 10:41:05;;;;;;;1.95;1.85;;;;;;;28.02;57.73;95752.84;5042450;28;20246;-68
2021/09/12 10:43:53;;;;;;;1.83;1.73;;;;;;;28.08;55.57;95750.09;5013712;28;20249;-68
2021/09/12 10:46:31;;;;;;;2.50;2.40;;;;;;;28.55;54.53;95749.94;5039120;28;20807;-68
2021/09/12 10:49:11;;;;;;;2.83;2.55;;;;;;;28.84;52.98;95741.59;5044903;28;20626;-68
2021/09/12 10:51:44;;;;;;;1.92;1.83;;;;;;;28.20;52.47;95753.16;5043734;28;20311;-68
2021/09/12 10:54:13;;;;;;;2.70;2.50;;;;;;;27.82;53.61;95753.13;5041576;28;20227;-68
2021/09/12 10:56:42;;;;;;;2.13;2.03;;;;;;;27.21;54.01;95746.47;5040107;28;20311;-68
2021/09/12 10:59:14;;;;;;;2.25;2.15;;;;;;;26.82;55.35;95746.56;5040224;28;20223;-68
2021/09/12 11:01:45;;;;;;;2.20;2.10;;;;;;;26.56;57.71;95742.44;5045730;28;20885;-68
2021/09/12 11:04:16;;;;;;;2.47;2.28;;;;;;;26.41;57.80;95745.25;5039427;28;20230;-67
2021/09/12 11:06:47;;;;;;;2.70;2.58;;;;;;;26.26;58.48;95744.25;5044123;28;20324;-68
2021/09/12 11:09:18;;;;;;;1.95;1.85;;;;;;;26.18;60.32;95739.44;5040462;28;20238;-68
2021/09/12 11:11:47;;;;;;;2.13;2.03;;;;;;;26.26;58.03;95746.97;5047388;28;20515;-68
2021/09/12 11:14:20;;;;;;;1.92;1.83;;;;;;;26.78;57.61;95739.28;5042053;28;20219;-68
2021/09/12 11:16:49;;;;;;;1.23;1.23;;;;;;;26.89;55.81;95738.91;5047891;28;20333;-68
2021/09/12 11:19:17;;;;;;;1.67;1.58;;;;;;;26.87;56.89;95730.25;5016700;28;20226;-67
2021/09/12 11:21:46;;;;;;;1.58;1.58;;;;;;;26.86;57.92;95739.47;5045409;28;20242;-67
2021/09/12 11:24:16;;;;;;;1.88;1.77;;;;;;;26.64;55.58;95739.13;5040293;28;20688;-68
2021/09/12 11:26:46;;;;;;;1.95;1.85;;;;;;;26.73;56.36;95734.72;5039903;28;20229;-68
2021/09/12 11:29:17;;;;;;;1.90;1.80;;;;;;;26.65;57.45;95729.91;5031304;28;20219;-67
2021/09/12 11:31:48;;;;;;;3.95;3.65;;;;;;;26.36;57.71;95725.25;5040904;28;20794;-68
2021/09/12 11:34:17;;;;;;;2.55;2.35;;;;;;;26.08;59.51;95723.28;5042450;28;20310;-68
2021/09/12 11:36:48;;;;;;;2.60;2.33;;;;;;;25.75;60.74;95728.31;5032374;28;20636;-68
2021/09/12 11:39:20;;;;;;;3.20;2.67;;;;;;;25.56;61.35;95716.50;5020627;28;20312;-67
2021/09/12 11:41:48;;;;;;;2.78;2.67;;;;;;;25.37;62.18;95715.50;5044219;28;20296;-68
2021/09/12 11:44:23;;;;;;;1.67;1.58;;;;;;;25.24;63.06;95717.69;5038347;28;20306;-68
2021/09/12 11:46:52;;;;;;;2.28;2.17;;;;;;;25.25;62.96;95707.69;5047140;28;20310;-67